Cape Claudine — V7VL5 — position and weather

sailwx.info

Track history (hours):
 
Tides and Currents Weather Stations Pressure Air Temp Water Temp Dewpoint Dewpoint Depression Visibility Wind Speed Wind Dir Waves Ship Positions

Cape Claudine

Last reported at 2017-Sep-18 03:09 UTC. Time now 2017-Sep-20 18:20 UTC.
Position N 16°28' W 062°26'.

Length 292 m; draft 9.4 m.

Type: Cargo ship. MMSI: 538004151.

Date/timePositionNaut miles runAvg speedWind from/ knotsBaromVisibWave heightAir tempDewpointWater temp
2017-Sep-18 03:09N 16°28' W 062°26'213.6
2017-Sep-18 03:00N 16°29' W 062°24'713.6
2017-Sep-18 02:30N 16°31' W 062°17'713.4
2017-Sep-18 02:00N 16°33' W 062°11'713.8
2017-Sep-18 01:30N 16°35' W 062°04'713.6
2017-Sep-18 01:00N 16°37' W 061°57'713.1
2017-Sep-18 00:30N 16°39' W 061°51'612.9
2017-Sep-18 00:00N 16°41' W 061°44'612.7
2017-Sep-17 23:30N 16°43' W 061°38'612.7
2017-Sep-17 23:00N 16°47' W 061°33'612.8
2017-Sep-17 22:30N 16°51' W 061°27'613.0
2017-Sep-17 22:00N 16°54' W 061°22'713.3
2017-Sep-17 21:30N 16°58' W 061°16'713.3
2017-Sep-17 21:00N 17°02' W 061°10'713.3
2017-Sep-17 20:30N 17°06' W 061°04'613.0
2017-Sep-17 20:00N 17°09' W 060°59'613.0
2017-Sep-17 19:30N 17°13' W 060°53'  
2017-Sep-08 14:22N 37°29' W 011°30'512.9
2017-Sep-08 14:00N 37°30' W 011°24'712.9
2017-Sep-08 13:30N 37°31' W 011°16'613.1
2017-Sep-08 13:00N 37°33' W 011°08'713.6
2017-Sep-08 12:30N 37°34' W 010°60'713.5
2017-Sep-08 12:00N 37°35' W 010°51'713.2
2017-Sep-08 11:30N 37°35' W 010°43'713.3
2017-Sep-08 11:00N 37°37' W 010°35'713.0
2017-Sep-08 10:30N 37°38' W 010°27'713.9
2017-Sep-08 10:00N 37°39' W 010°18'713.8
2017-Sep-08 09:30N 37°41' W 010°10'4 7.4
2017-Sep-08 09:00N 37°42' W 010°05'5 9.6
2017-Sep-08 08:31N 37°43' W 009°59'714.9
2017-Sep-08 08:01N 37°44' W 009°50'714.7
2017-Sep-08 07:31N 37°46' W 009°41'714.8
2017-Sep-08 07:01N 37°48' W 009°32'714.7
2017-Sep-08 06:31N 37°50' W 009°23'510.0
2017-Sep-08 06:01N 37°51' W 009°17'510.3
2017-Sep-08 05:31N 37°52' W 009°10'714.9
2017-Sep-08 05:01N 37°54' W 009°01'611.4
2017-Sep-08 04:30N 37°55' W 008°54'2 5.0
2017-Sep-08 04:00N 37°56' W 008°52'0 0.5
2017-Sep-08 03:30N 37°56' W 008°51'  
Track history (hours):
 
Tides and Currents Weather Stations Pressure Air Temp Water Temp Dewpoint Dewpoint Depression Visibility Wind Speed Wind Dir Waves Ship Positions

Cape Claudine

Last reported at 2017-Sep-18 03:09 UTC. Time now 2017-Sep-20 18:20 UTC.
Position N 16°28' W 062°26'.

Length 292 m; draft 9.4 m.

Type: Cargo ship. MMSI: 538004151.

Date/timePositionNaut miles runAvg speedWind from/ knotsBaromVisibWave heightAir tempDewpointWater temp
2017-Sep-18 03:09N 16°28' W 062°26'213.6
2017-Sep-18 03:00N 16°29' W 062°24'713.6
2017-Sep-18 02:30N 16°31' W 062°17'713.4
2017-Sep-18 02:00N 16°33' W 062°11'713.8
2017-Sep-18 01:30N 16°35' W 062°04'713.6
2017-Sep-18 01:00N 16°37' W 061°57'713.1
2017-Sep-18 00:30N 16°39' W 061°51'612.9
2017-Sep-18 00:00N 16°41' W 061°44'612.7
2017-Sep-17 23:30N 16°43' W 061°38'612.7
2017-Sep-17 23:00N 16°47' W 061°33'612.8
2017-Sep-17 22:30N 16°51' W 061°27'613.0
2017-Sep-17 22:00N 16°54' W 061°22'713.3
2017-Sep-17 21:30N 16°58' W 061°16'713.3
2017-Sep-17 21:00N 17°02' W 061°10'713.3
2017-Sep-17 20:30N 17°06' W 061°04'613.0
2017-Sep-17 20:00N 17°09' W 060°59'613.0
2017-Sep-17 19:30N 17°13' W 060°53'  
2017-Sep-08 14:22N 37°29' W 011°30'512.9
2017-Sep-08 14:00N 37°30' W 011°24'712.9
2017-Sep-08 13:30N 37°31' W 011°16'613.1
2017-Sep-08 13:00N 37°33' W 011°08'713.6
2017-Sep-08 12:30N 37°34' W 010°60'713.5
2017-Sep-08 12:00N 37°35' W 010°51'713.2
2017-Sep-08 11:30N 37°35' W 010°43'713.3
2017-Sep-08 11:00N 37°37' W 010°35'713.0
2017-Sep-08 10:30N 37°38' W 010°27'713.9
2017-Sep-08 10:00N 37°39' W 010°18'713.8
2017-Sep-08 09:30N 37°41' W 010°10'4 7.4
2017-Sep-08 09:00N 37°42' W 010°05'5 9.6
2017-Sep-08 08:31N 37°43' W 009°59'714.9
2017-Sep-08 08:01N 37°44' W 009°50'714.7
2017-Sep-08 07:31N 37°46' W 009°41'714.8
2017-Sep-08 07:01N 37°48' W 009°32'714.7
2017-Sep-08 06:31N 37°50' W 009°23'510.0
2017-Sep-08 06:01N 37°51' W 009°17'510.3
2017-Sep-08 05:31N 37°52' W 009°10'714.9
2017-Sep-08 05:01N 37°54' W 009°01'611.4
2017-Sep-08 04:30N 37°55' W 008°54'2 5.0
2017-Sep-08 04:00N 37°56' W 008°52'0 0.5
2017-Sep-08 03:30N 37°56' W 008°51'  

Dump ship's entire track history